« 玉葱畑で見青げて!第28回札幌航空ページェント 札幌飛行場 2014/7/20 sun  | トップページ | 趣味的航空路誌改訂情報 2014/7/24 thu »

2014/07/23

突き 小松飛行場 2014/7/23 wed

丘珠遠征から帰還した翌日、小松に派手熊が出現したとの一報。なぬー、丘珠で見上げたあの派手なやつか?? で、とにかく現場確認に。

RJNK 222200Z 19005KT 160V220 9000 FEW040 BKN220 27/24 Q1007

結果、派手熊は、22日の一斉展開訓練と思しきフライトでやってきて、その日の内にお帰りになったようだった。

でも、もう一件怪しい情報も・・

20140723_rjnk_01f428842

今日のスタートは、ゆっくり目。最初に出てきたのは、梅組。

20140723_rjnk_03t965619

96-5619 T-4 306SQ M56

20140723_rjnk_04fepe

4機そろい組み 2号機と3号機を一度に見れるとわ
42-8842 F-15J 305SQ
12-8803 F-15J 203SQ
42-8834 F-15J 201SQ
02-8802 F-15J 304SQ

20140723_rjnk_05f428949

地元組のスタート いきなり4機連続ハイレイトで昇天

42-8949 F-15J 306SQ M21

20140723_rjnk_06f428946

42-8946 F-15J 306SQ M22

20140723_rjnk_07f328087

32-8087 F-15DJ 306SQ M23

20140723_rjnk_08f428950

42-8950 F-15J 306SQ M24

20140723_rjnk_09mp3c

上空をブーンが北に向けて・・

RJNK 230000Z 21007KT 9999 FEW040 BKN220 31/24 Q1006

20140723_rjnk_10u523023

救難隊はU-125が2機編隊でナビゲーション

52-3023 U-125A KOMATSU-ARS A-M1

20140723_rjnk_11u923012

92-3012 U-125A KOMATSU-ARS A-M2

20140723_rjnk_12f428950

小一時間で帰ってきた。

42-8950 F-15J 306SQ M24

20140723_rjnk_13f428949

フォーメーションランディング

42-8949/42-8946 F-15J 306SQ M21/M22

20140723_rjnk_14jg811

JG41811 UH-1J 西の方から2回飛来した。

20140723_rjnk_15t865766

浜松組が連続で3機T/G

85-5766 T-4 32SQ T/G B58

20140723_rjnk_16t065783

06-5783 T-4 32SQ T/G B55

20140723_rjnk_17t465736

46-5736 T-4 32SQ T/G B66

20140723_rjnk_18f428829

竜組は10時頃から

42-8829/22-8806 F-15J 303SQ J05/J06

20140723_rjnk_19f528849

52-8849 F-15J 303SQ J07

20140723_rjnk_20f228931

さてさてようやくそろい組がスタート。先導は地元犬鷲。

20140723_rjnk_21f528848

52-8848 F-15J 303SQ J01

20140723_rjnk_22f528852

52-8852 F-15J 303SQ J02

背後でなにやら準備してるのだが、フライトすることは無く、本日は中止の模様。

20140723_rjnk_23f428838

42-8838 F-15J 303SQ J03

20140723_rjnk_24f228931

22-8931 F-15J 306SQ E11

20140723_rjnk_25f428842

42-8842 F-15J 305SQ E12

20140723_rjnk_26t165663

16-5663 T-4 303SQ J82 for TSUIKI

20140723_rjnk_27f428834

42-8834 F-15J 201SQ E13

20140723_rjnk_28f028802

02-8802 F-15J 304SQ E14

20140723_rjnk_29f128803

居残りはパンダ

12-8803 F-15J 203SQ

20140723_rjnk_30u523023

52-3023 U-125A KOMATSU-ARS A-M1

20140723_rjnk_31f428829

42-8829 F-15J 303SQ T/G J05

20140723_rjnk_32f228806

22-8806 F-15J 303SQ T/G J06

20140723_rjnk_33t015060

キティ機長のT-400は到着時撮りそこね。しばらく待機して出発していった。

01-5060 T-400 41FTS R60

20140723_rjnk_34f528849

52-8849 F-15J 303SQ T/G J07

20140723_rjnk_35t965619

96-5619 T-4 306SQ M73

20140723_rjnk_36f428946

42-8946 F-15J 306SQ M23

20140723_rjnk_37f028919

02-8919 F-15J 306SQ M24

20140723_rjnk_38f028917

02-8917 F-15J 306SQ M21

20140723_rjnk_39f628959

62-8959 F-15J 306SQ M22

20140723_rjnk_40f428838

42-8838 F-15J 303SQ J03

20140723_rjnk_41f328087

32-8087 F-15DJ 306SQ M31

なにやらお客さんを乗っけて、シュミレートテイクオフの模様。ジャンプ!

RJNK 230200Z 25012KT 220V280 9999 FEW030 SCT040 BKN220 34/25 Q1006

20140723_rjnk_42t515058

51-5058 T-400 41FTS T/G R58

20140723_rjnk_43f428842

42-8842 F-15J 305SQ E12

20140723_rjnk_44f428834

42-8834 F-15J 201SQ E13

20140723_rjnk_45f028802

02-8802 F-15J 304SQ E14

20140723_rjnk_46f028919

02-8919 F-15J 306SQ M24

20140723_rjnk_47h084591

08-4591 UH-60J KOMATSU-ARS H91

20140723_rjnk_48f628959

62-8959 F-15J 306SQ M22

犬鷲の2回目のフライトが帰ってきて、午前の部はおしまい。小生の展開もここまで。

|

« 玉葱畑で見青げて!第28回札幌航空ページェント 札幌飛行場 2014/7/20 sun  | トップページ | 趣味的航空路誌改訂情報 2014/7/24 thu »

小松飛行場」カテゴリの記事

コメント

コメントを書く



(ウェブ上には掲載しません)


コメントは記事投稿者が公開するまで表示されません。



トラックバック


この記事へのトラックバック一覧です: 突き 小松飛行場 2014/7/23 wed:

« 玉葱畑で見青げて!第28回札幌航空ページェント 札幌飛行場 2014/7/20 sun  | トップページ | 趣味的航空路誌改訂情報 2014/7/24 thu »